Time;durP1;ratioP1;P1;durP2;ratioP2;P2;SDS_P1;SDS_P2;PMS_P1;PMS_P2;Temp;Humidity;BMP_temperature;BMP_pressure;BME280_temperature;BME280_humidity;BME280_pressure;Samples;Min_cycle;Max_cycle;Signal;HPM_P1;HPM_P2
2022/04/25 00:00:16;;;;;;;15.77;8.77;;;7.00;99.90;;;;;;5093767;28;20149;-50
2022/04/25 00:02:42;;;;;;;16.98;9.50;;;7.00;99.90;;;;;;5093879;28;20036;-47
2022/04/25 00:05:10;;;;;;;15.70;8.20;;;7.10;99.90;;;;;;5092338;28;20146;-46
2022/04/25 00:07:38;;;;;;;16.95;8.50;;;7.10;99.90;;;;;;5096487;28;20317;-47
2022/04/25 00:10:04;;;;;;;18.23;9.55;;;6.90;99.90;;;;;;5095756;28;20036;-47
2022/04/25 00:12:30;;;;;;;17.40;9.57;;;;;;;;;;5096885;28;20069;-49
2022/04/25 00:14:57;;;;;;;19.13;9.35;;;;;;;;;;5096262;28;20080;-51
2022/04/25 00:17:23;;;;;;;14.32;9.00;;;7.00;99.90;;;;;;5096834;28;20036;-49
2022/04/25 00:19:48;;;;;;;14.40;9.43;;;6.90;99.90;;;;;;5096628;28;20040;-48
2022/04/25 00:22:14;;;;;;;15.35;9.05;;;7.00;99.90;;;;;;5096570;28;20039;-50
2022/04/25 00:24:41;;;;;;;15.48;8.82;;;6.90;99.90;;;;;;5095241;28;21000;-52
2022/04/25 00:27:07;;;;;;;15.43;9.35;;;;;;;;;;5095768;28;20050;-47
2022/04/25 00:29:32;;;;;;;18.58;9.15;;;7.00;99.90;;;;;;5097222;28;20411;-50
2022/04/25 00:31:58;;;;;;;16.98;9.63;;;;;;;;;;5096455;28;20035;-46
2022/04/25 00:34:24;;;;;;;18.17;8.88;;;7.10;99.90;;;;;;5096008;28;20392;-46
2022/04/25 00:36:52;;;;;;;14.55;9.10;;;7.00;99.90;;;;;;5096887;28;20500;-45
2022/04/25 00:39:19;;;;;;;16.70;9.70;;;7.20;99.90;;;;;;5096784;28;20125;-46
2022/04/25 00:41:45;;;;;;;18.63;9.88;;;7.20;99.90;;;;;;5096940;28;20044;-47
2022/04/25 00:44:11;;;;;;;15.77;9.85;;;7.20;99.90;;;;;;5095758;28;20039;-46
2022/04/25 00:46:40;;;;;;;21.88;10.25;;;7.10;99.90;;;;;;5096585;28;20051;-48
2022/04/25 00:49:06;;;;;;;17.42;9.18;;;7.00;99.90;;;;;;5096334;28;20049;-47
2022/04/25 00:51:31;;;;;;;13.50;9.48;;;7.20;99.90;;;;;;5096273;28;20032;-46
2022/04/25 00:53:57;;;;;;;19.75;10.30;;;7.20;99.90;;;;;;5095949;28;20124;-46
2022/04/25 00:56:26;;;;;;;16.55;9.80;;;7.10;99.90;;;;;;5095821;28;20035;-49
2022/04/25 00:58:52;;;;;;;15.43;9.23;;;7.10;99.90;;;;;;5096071;28;20368;-49
2022/04/25 01:01:18;;;;;;;16.42;9.63;;;7.20;99.90;;;;;;5097518;28;20497;-46
2022/04/25 01:03:44;;;;;;;15.93;9.77;;;7.10;99.90;;;;;;5095081;28;20681;-46
2022/04/25 01:06:10;;;;;;;16.55;9.45;;;7.20;99.90;;;;;;5095756;28;20036;-47
2022/04/25 01:08:37;;;;;;;15.60;10.23;;;7.20;99.90;;;;;;5094117;28;20047;-49
2022/04/25 01:11:04;;;;;;;18.13;10.52;;;7.20;99.90;;;;;;5095780;28;20119;-48
2022/04/25 01:13:31;;;;;;;19.20;10.00;;;7.10;99.90;;;;;;5092761;28;20070;-48
2022/04/25 01:15:56;;;;;;;14.82;10.00;;;7.10;99.90;;;;;;5095814;28;20052;-50
2022/04/25 01:18:22;;;;;;;17.05;9.88;;;7.20;99.90;;;;;;5094190;28;20391;-47
2022/04/25 01:20:50;;;;;;;14.48;9.73;;;7.20;99.90;;;;;;5096301;28;20093;-47
2022/04/25 01:28:51;;;;;;;19.58;10.02;;;7.20;99.90;;;;;;5095003;28;20971;-47
2022/04/25 01:31:19;;;;;;;18.48;9.77;;;7.00;99.90;;;;;;5095912;28;20516;-51
2022/04/25 01:33:44;;;;;;;17.70;10.93;;;7.10;99.90;;;;;;5094436;28;20059;-50
2022/04/25 01:36:11;;;;;;;21.15;10.45;;;7.10;99.90;;;;;;5094497;28;20585;-50
2022/04/25 01:38:38;;;;;;;15.15;10.43;;;7.10;99.90;;;;;;5092691;28;20043;-50
2022/04/25 01:41:04;;;;;;;16.77;10.10;;;7.00;99.90;;;;;;5093747;28;20035;-50
2022/04/25 01:43:36;;;;;;;17.10;10.70;;;6.90;99.90;;;;;;5094836;28;20036;-51
2022/04/25 01:46:03;;;;;;;;;;;6.90;99.90;;;;;;5096801;28;20043;-49
2022/04/25 01:48:29;;;;;;;17.33;10.55;;;6.80;99.90;;;;;;5096605;28;19923;-51
2022/04/25 01:50:55;;;;;;;18.15;9.13;;;6.70;99.90;;;;;;5095323;28;20601;-47
2022/04/25 01:53:21;;;;;;;18.88;10.27;;;6.60;99.90;;;;;;5095410;28;20031;-46
2022/04/25 01:55:47;;;;;;;18.17;10.57;;;;;;;;;;5095507;28;20072;-48
2022/04/25 01:58:13;;;;;;;18.75;11.35;;;6.70;99.90;;;;;;5096335;28;20119;-48
2022/04/25 02:00:39;;;;;;;14.93;10.63;;;6.50;99.90;;;;;;5096470;28;20050;-46
2022/04/25 02:03:05;;;;;;;19.25;10.68;;;;;;;;;;5095559;28;20566;-47
2022/04/25 02:05:31;;;;;;;16.45;9.68;;;;;;;;;;5095943;28;20051;-45
2022/04/25 02:07:57;;;;;;;18.80;10.32;;;;;;;;;;5094757;28;20079;-49
2022/04/25 02:10:23;;;;;;;20.55;11.00;;;;;;;;;;5094124;28;20161;-47
2022/04/25 02:12:51;;;;;;;16.38;9.45;;;6.30;99.90;;;;;;5092534;28;20177;-46
2022/04/25 02:15:18;;;;;;;16.48;10.50;;;6.40;99.90;;;;;;5093414;28;20032;-50
2022/04/25 02:17:45;;;;;;;17.98;10.27;;;;;;;;;;5094829;28;20051;-47
2022/04/25 02:20:12;;;;;;;17.38;9.30;;;6.00;99.90;;;;;;5094119;28;20036;-51
2022/04/25 02:22:40;;;;;;;17.48;9.60;;;6.20;99.90;;;;;;5094450;28;20035;-46
2022/04/25 02:25:07;;;;;;;17.95;9.32;;;6.20;99.90;;;;;;5094099;28;20069;-49
2022/04/25 02:27:33;;;;;;;17.38;10.63;;;;;;;;;;5093928;27;20043;-50
2022/04/25 02:29:59;;;;;;;19.35;10.63;;;;;;;;;;5092843;28;20040;-53
2022/04/25 02:32:28;;;;;;;16.13;9.35;;;6.30;99.90;;;;;;5094285;28;20035;-49
2022/04/25 02:34:54;;;;;;;19.80;10.32;;;6.30;99.90;;;;;;5093988;28;20055;-49
2022/04/25 02:37:21;;;;;;;16.27;9.90;;;;;;;;;;5094242;28;20046;-51
2022/04/25 02:39:47;;;;;;;18.33;10.20;;;;;;;;;;5094393;28;20040;-52
2022/04/25 02:42:13;;;;;;;16.65;9.32;;;;;;;;;;5093128;28;20049;-49
2022/04/25 02:44:39;;;;;;;17.05;10.45;;;;;;;;;;5093739;28;20050;-50
2022/04/25 02:47:07;;;;;;;23.20;11.27;;;6.20;99.90;;;;;;5092804;28;20043;-46
2022/04/25 02:49:33;;;;;;;18.42;11.57;;;;;;;;;;5093804;28;20485;-49
2022/04/25 02:51:58;;;;;;;17.20;10.05;;;6.20;99.90;;;;;;5093103;28;20050;-49
2022/04/25 02:54:24;;;;;;;17.60;10.02;;;;;;;;;;5093749;28;21675;-52
2022/04/25 02:56:51;;;;;;;21.42;10.57;;;;;;;;;;5095329;28;20044;-48
2022/04/25 02:59:17;;;;;;;18.30;11.15;;;;;;;;;;5093833;28;20067;-46
2022/04/25 03:01:43;;;;;;;15.93;9.50;;;;;;;;;;5094295;28;20066;-46
2022/04/25 03:04:11;;;;;;;15.80;10.13;;;6.30;99.90;;;;;;5093929;28;20858;-46
2022/04/25 03:06:38;;;;;;;18.40;10.07;;;6.40;99.90;;;;;;5094429;28;20043;-46
2022/04/25 03:09:05;;;;;;;17.63;11.35;;;;;;;;;;5092363;28;20048;-50
2022/04/25 03:11:33;;;;;;;16.30;9.00;;;;;;;;;;5092975;28;20039;-50
2022/04/25 03:14:00;;;;;;;14.27;8.00;;;6.50;99.90;;;;;;5093449;28;21571;-48
2022/04/25 03:16:29;;;;;;;13.43;8.00;;;;;;;;;;5092416;28;20320;-51
2022/04/25 03:18:58;;;;;;;15.15;8.88;;;;;;;;;;5093632;28;20699;-47
2022/04/25 03:21:25;;;;;;;14.50;8.30;;;6.70;99.90;;;;;;5092807;28;20059;-51
2022/04/25 03:23:53;;;;;;;13.70;8.93;;;;;;;;;;5092267;28;20044;-48
2022/04/25 03:26:19;;;;;;;14.55;9.20;;;6.80;99.90;;;;;;5093107;28;20127;-48
2022/04/25 03:28:45;;;;;;;18.73;9.27;;;;;;;;;;5092491;28;20036;-47
2022/04/25 03:31:11;;;;;;;14.60;8.93;;;;;;;;;;5094770;28;20043;-48
2022/04/25 03:33:37;;;;;;;12.15;7.72;;;;;;;;;;5092738;28;20043;-49
2022/04/25 03:36:05;;;;;;;15.85;8.25;;;7.00;99.90;;;;;;5092883;28;20043;-48
2022/04/25 03:38:31;;;;;;;16.30;8.40;;;;;;;;;;5093297;28;20043;-47
2022/04/25 03:40:57;;;;;;;15.70;8.48;;;;;;;;;;5095140;28;20054;-49
2022/04/25 03:43:24;;;;;;;14.95;7.20;;;7.10;99.90;;;;;;5097546;28;20046;-49
2022/04/25 03:45:50;;;;;;;17.15;8.30;;;;;;;;;;5094251;28;20051;-52
2022/04/25 03:48:16;;;;;;;14.02;7.72;;;;;;;;;;5096982;28;20044;-50
2022/04/25 03:50:44;;;;;;;13.20;6.93;;;7.20;99.90;;;;;;5098265;28;20055;-46
2022/04/25 03:53:13;;;;;;;12.73;6.90;;;7.30;99.90;;;;;;5098073;28;20035;-49
2022/04/25 03:58:23;;;;;;;16.88;7.35;;;;;;;;;;5097276;28;20511;-46
2022/04/25 04:00:50;;;;;;;12.32;6.70;;;7.30;99.90;;;;;;5080265;28;20043;-49
2022/04/25 04:03:17;;;;;;;12.00;6.35;;;;;;;;;;5098361;28;20032;-46
2022/04/25 04:05:46;;;;;;;13.65;7.40;;;7.40;99.90;;;;;;5097385;28;20419;-47
2022/04/25 04:08:12;;;;;;;12.77;6.57;;;;;;;;;;5098796;28;20051;-48
2022/04/25 04:10:39;;;;;;;11.65;6.65;;;7.30;99.90;;;;;;5097818;28;20051;-48
2022/04/25 04:13:05;;;;;;;11.13;6.78;;;;;;;;;;5097431;28;20036;-51
2022/04/25 04:15:33;;;;;;;12.07;7.15;;;7.30;99.90;;;;;;5097957;28;20050;-53
2022/04/25 04:17:59;;;;;;;12.05;6.80;;;;;;;;;;5097114;28;20036;-52
2022/04/25 04:20:25;;;;;;;17.08;8.75;;;;;;;;;;5098060;27;20042;-51
2022/04/25 04:22:51;;;;;;;17.45;8.82;;;;;;;;;;5095546;28;20036;-51
2022/04/25 04:25:18;;;;;;;17.05;7.63;;;;;;;;;;5096991;28;20039;-51
2022/04/25 04:27:43;;;;;;;14.52;7.30;;;7.40;99.90;;;;;;5096415;28;20973;-51
2022/04/25 04:30:12;;;;;;;14.00;7.40;;;7.30;99.90;;;;;;5097324;28;20046;-47
2022/04/25 04:32:40;;;;;;;17.90;9.63;;;7.20;99.90;;;;;;5097357;28;20039;-50
2022/04/25 04:35:10;;;;;;;11.13;7.53;;;7.30;99.90;;;;;;5096389;28;20055;-51
2022/04/25 04:37:37;;;;;;;17.50;8.98;;;7.10;99.90;;;;;;5095926;28;20047;-48
2022/04/25 04:42:49;;;;;;;11.75;7.63;;;;;;;;;;5096224;28;20047;-47
2022/04/25 04:45:15;;;;;;;18.13;10.95;;;;;;;;;;5096723;28;20042;-49
2022/04/25 04:47:41;;;;;;;15.23;8.07;;;;;;;;;;5095288;28;20054;-49
2022/04/25 04:50:14;;;;;;;16.60;8.60;;;7.20;99.90;;;;;;5096294;28;20058;-50
2022/04/25 04:52:51;;;;;;;17.45;9.65;;;7.20;99.90;;;;;;5095270;28;20697;-51
2022/04/25 04:55:16;;;;;;;13.68;8.32;;;7.20;99.90;;;;;;5094303;28;20078;-46
2022/04/25 04:57:43;;;;;;;14.30;9.10;;;;;;;;;;5095546;28;20177;-46
2022/04/25 05:00:11;;;;;;;16.00;8.80;;;7.10;99.90;;;;;;5095277;28;20035;-46
2022/04/25 05:02:38;;;;;;;17.10;8.75;;;7.10;99.90;;;;;;5097492;28;20039;-49
2022/04/25 05:05:05;;;;;;;13.15;7.00;;;7.20;99.90;;;;;;5096184;28;20043;-46
2022/04/25 05:07:31;;;;;;;13.63;9.00;;;7.20;99.90;;;;;;5093576;28;20036;-46
2022/04/25 05:09:57;;;;;;;18.00;8.80;;;;;;;;;;5094495;28;20046;-45
2022/04/25 05:12:23;;;;;;;14.60;8.50;;;;;;;;;;5095717;28;20055;-46
2022/04/25 05:14:49;;;;;;;13.75;8.80;;;7.40;99.90;;;;;;5095804;28;20039;-46
2022/04/25 05:17:16;;;;;;;17.45;8.50;;;7.20;99.90;;;;;;5096187;28;20040;-48
2022/04/25 05:19:42;;;;;;;15.50;9.77;;;;;;;;;;5096384;28;20067;-48
2022/04/25 05:22:08;;;;;;;20.17;8.32;;;;;;;;;;5096768;28;20040;-47
2022/04/25 05:24:34;;;;;;;17.75;9.82;;;7.30;99.90;;;;;;5094938;28;20095;-49
2022/04/25 05:27:00;;;;;;;13.98;8.65;;;;;;;;;;5095286;28;20047;-46
2022/04/25 05:29:26;;;;;;;17.58;8.45;;;;;;;;;;5095375;28;21495;-48
2022/04/25 05:31:52;;;;;;;14.35;9.13;;;;;;;;;;5097410;28;20074;-47
2022/04/25 05:34:19;;;;;;;12.00;6.80;;;;;;;;;;5093621;28;20216;-49
2022/04/25 05:36:45;;;;;;;16.50;9.82;;;;;;;;;;5094294;28;20058;-46
2022/04/25 05:39:10;;;;;;;14.70;8.70;;;7.20;99.90;;;;;;5095310;28;22086;-46
2022/04/25 05:41:38;;;;;;;13.57;9.00;;;7.40;99.90;;;;;;5094519;28;20050;-50
2022/04/25 05:44:04;;;;;;;19.38;9.15;;;7.30;99.90;;;;;;5094898;28;20047;-48
2022/04/25 05:46:31;;;;;;;16.15;9.30;;;;;;;;;;5094566;28;20092;-51
2022/04/25 05:52:02;;;;;;;20.73;9.30;;;7.20;99.90;;;;;;5094181;28;20188;-48
2022/04/25 05:54:29;;;;;;;15.85;8.73;;;;;;;;;;5094532;28;20620;-46
2022/04/25 05:56:56;;;;;;;18.02;8.65;;;6.30;99.90;;;;;;5093951;28;20050;-48
2022/04/25 05:59:22;;;;;;;14.10;8.00;;;;;;;;;;5093424;28;20050;-48
2022/04/25 06:01:48;;;;;;;15.50;8.35;;;;;;;;;;5095301;28;20040;-48
2022/04/25 06:04:14;;;;;;;15.07;8.68;;;;;;;;;;5092540;28;20043;-47
2022/04/25 06:06:40;;;;;;;14.73;8.82;;;;;;;;;;5093759;28;20036;-47
2022/04/25 06:09:06;;;;;;;15.93;9.70;;;7.30;99.90;;;;;;5093048;28;20089;-45
2022/04/25 06:11:32;;;;;;;14.68;8.45;;;;;;;;;;5094355;28;20565;-49
2022/04/25 06:13:59;;;;;;;14.05;8.18;;;7.20;99.90;;;;;;5093784;28;20040;-51
2022/04/25 06:16:25;;;;;;;15.60;8.50;;;7.30;99.90;;;;;;5094230;28;20508;-48
2022/04/25 06:18:51;;;;;;;14.52;9.15;;;7.30;99.90;;;;;;5094101;28;20047;-51
2022/04/25 06:21:17;;;;;;;10.70;7.70;;;7.30;99.90;;;;;;5094108;28;20067;-49
2022/04/25 06:23:42;;;;;;;14.20;8.02;;;7.40;99.90;;;;;;5093344;28;20042;-47
2022/04/25 06:26:08;;;;;;;14.20;7.85;;;7.60;99.90;;;;;;5093025;28;20048;-46
2022/04/25 06:28:34;;;;;;;13.48;7.97;;;8.60;99.90;;;;;;5093720;28;20044;-46
2022/04/25 06:31:00;;;;;;;15.70;8.65;;;7.60;99.90;;;;;;5093433;28;20043;-47
2022/04/25 06:33:26;;;;;;;17.17;8.32;;;7.70;99.90;;;;;;5094931;28;20492;-47
2022/04/25 06:35:52;;;;;;;13.70;8.52;;;7.70;99.90;;;;;;5092866;28;20104;-47
2022/04/25 06:38:21;;;;;;;14.35;8.07;;;8.80;99.90;;;;;;5093837;28;20047;-47
2022/04/25 06:40:46;;;;;;;16.35;9.52;;;7.50;99.90;;;;;;5093918;28;20039;-50
2022/04/25 06:43:14;;;;;;;15.45;8.35;;;7.60;99.90;;;;;;5093316;28;20046;-49
2022/04/25 06:45:40;;;;;;;14.73;7.85;;;7.60;99.90;;;;;;5092974;28;20051;-48
2022/04/25 06:48:08;;;;;;;14.68;8.88;;;7.70;99.90;;;;;;5093711;28;20080;-51
2022/04/25 06:50:34;;;;;;;13.85;8.48;;;7.70;99.90;;;;;;5092962;28;20115;-49
2022/04/25 06:53:00;;;;;;;13.57;7.32;;;7.70;99.90;;;;;;5093307;28;20985;-51
2022/04/25 06:55:28;;;;;;;12.40;7.32;;;7.80;99.90;;;;;;5093618;28;20051;-51
2022/04/25 06:57:54;;;;;;;15.35;8.32;;;7.80;99.90;;;;;;5092919;28;20445;-52
2022/04/25 07:00:22;;;;;;;18.85;10.45;;;7.90;99.90;;;;;;5092786;28;20031;-50
2022/04/25 07:02:48;;;;;;;17.00;9.15;;;8.00;99.90;;;;;;5093551;28;20070;-50
2022/04/25 07:05:14;;;;;;;13.38;7.47;;;7.90;99.90;;;;;;5094706;28;20123;-51
2022/04/25 07:07:39;;;;;;;16.63;7.90;;;8.20;99.90;;;;;;5093696;28;20032;-48
2022/04/25 07:10:06;;;;;;;8.85;5.63;;;8.20;99.90;;;;;;5092932;28;20048;-53
2022/04/25 07:12:32;;;;;;;15.13;8.65;;;8.20;99.90;;;;;;5093012;28;20478;-47
2022/04/25 07:14:59;;;;;;;51.55;9.15;;;8.20;99.90;;;;;;5092621;28;20111;-47
2022/04/25 07:17:25;;;;;;;23.77;8.25;;;8.10;99.90;;;;;;5091667;28;20089;-47
2022/04/25 07:19:51;;;;;;;23.63;8.38;;;8.10;99.90;;;;;;5091321;28;20135;-48
2022/04/25 07:30:34;;;;;;;17.73;8.25;;;8.30;99.90;;;;;;5092152;28;20043;-46
2022/04/25 07:33:00;;;;;;;17.02;9.98;;;8.00;99.90;;;;;;5093996;28;20134;-45
2022/04/25 07:35:26;;;;;;;16.02;9.15;;;8.20;99.90;;;;;;5091785;28;20277;-48
2022/04/25 07:37:52;;;;;;;14.25;8.60;;;8.10;99.90;;;;;;5091555;28;20515;-46
2022/04/25 07:40:17;;;;;;;18.30;9.00;;;8.20;99.90;;;;;;5091529;28;20729;-49
2022/04/25 07:42:43;;;;;;;34.75;10.73;;;9.40;99.90;;;;;;5092289;28;20043;-46
2022/04/25 07:45:09;;;;;;;14.88;9.20;;;8.30;99.90;;;;;;5090529;28;20040;-49
2022/04/25 07:47:35;;;;;;;15.65;8.75;;;8.50;99.90;;;;;;5091299;28;20138;-46
2022/04/25 07:50:02;;;;;;;15.23;8.88;;;8.40;99.90;;;;;;5093534;28;20126;-46
2022/04/25 07:52:27;;;;;;;14.98;9.30;;;8.40;99.90;;;;;;5092433;28;20036;-50
2022/04/25 07:54:55;;;;;;;12.93;7.90;;;8.90;99.90;;;;;;5091343;28;20097;-46
2022/04/25 07:57:20;;;;;;;16.52;7.55;;;8.30;99.90;;;;;;5089945;28;20036;-48
2022/04/25 07:59:47;;;;;;;12.25;8.02;;;8.30;99.90;;;;;;5091356;28;20088;-47
2022/04/25 08:02:13;;;;;;;14.27;9.15;;;8.30;99.90;;;;;;5090138;28;20040;-49
2022/04/25 08:04:39;;;;;;;15.07;8.80;;;8.20;99.90;;;;;;5092002;28;20042;-46
2022/04/25 08:07:05;;;;;;;12.77;7.53;;;8.10;99.90;;;;;;5091933;28;20031;-49
2022/04/25 08:09:30;;;;;;;17.35;7.80;;;8.10;99.90;;;;;;5092230;28;20447;-48
2022/04/25 08:20:15;;;;;;;14.13;5.93;;;8.40;99.90;;;;;;5091130;28;20051;-45
2022/04/25 08:22:41;;;;;;;12.15;6.40;;;8.60;99.90;;;;;;5091499;28;20217;-46
2022/04/25 08:25:08;;;;;;;13.45;6.75;;;8.40;99.90;;;;;;5091224;28;20031;-48
2022/04/25 08:27:34;;;;;;;10.23;5.95;;;8.40;99.90;;;;;;5094396;28;20039;-45
2022/04/25 08:30:00;;;;;;;11.05;5.47;;;9.20;99.90;;;;;;5095426;28;20097;-49
2022/04/25 08:32:26;;;;;;;14.02;5.20;;;8.50;99.90;;;;;;5095048;28;20151;-47
2022/04/25 08:34:54;;;;;;;13.27;6.55;;;8.50;99.90;;;;;;5096195;28;20450;-46
2022/04/25 08:37:19;;;;;;;10.82;5.53;;;8.90;99.90;;;;;;5095711;28;20134;-49
2022/04/25 08:39:45;;;;;;;14.57;6.47;;;8.70;99.90;;;;;;5094494;28;20065;-46
2022/04/25 08:42:11;;;;;;;9.70;4.63;;;8.60;99.90;;;;;;5094569;28;20063;-45
2022/04/25 08:44:39;;;;;;;12.10;6.40;;;8.70;99.90;;;;;;5093335;28;20630;-46
2022/04/25 08:47:08;;;;;;;13.93;6.97;;;9.00;99.90;;;;;;5094281;28;21310;-49
2022/04/25 08:49:35;;;;;;;13.65;7.50;;;8.90;99.90;;;;;;5094714;28;20460;-46
2022/04/25 08:52:03;;;;;;;11.50;6.68;;;8.90;99.90;;;;;;5095264;28;20053;-48
2022/04/25 08:54:30;;;;;;;12.30;7.22;;;9.10;99.90;;;;;;5094089;28;20035;-46
2022/04/25 08:56:56;;;;;;;11.27;7.57;;;9.10;99.90;;;;;;5094779;28;20073;-46
2022/04/25 08:59:25;;;;;;;16.13;7.93;;;9.10;99.90;;;;;;5094621;28;20104;-47
2022/04/25 09:01:51;;;;;;;11.48;6.70;;;9.30;99.90;;;;;;5093930;28;20164;-48
2022/04/25 09:04:17;;;;;;;10.18;5.75;;;9.50;99.90;;;;;;5094748;28;20875;-49
2022/04/25 09:06:45;;;;;;;12.85;5.22;;;9.40;99.90;;;;;;5095869;28;20039;-44
2022/04/25 09:09:10;;;;;;;12.35;6.10;;;11.70;99.90;;;;;;5093605;28;20109;-45
2022/04/25 09:14:23;;;;;;;11.07;4.95;;;9.80;99.90;;;;;;5094960;28;20116;-46
2022/04/25 09:16:50;;;;;;;9.23;4.70;;;9.80;99.90;;;;;;5094221;28;20507;-48
2022/04/25 09:19:15;;;;;;;10.43;4.82;;;9.90;99.90;;;;;;5095288;28;20159;-46
2022/04/25 09:21:43;;;;;;;12.10;4.10;;;10.20;99.90;;;;;;5092777;28;24713;-48
2022/04/25 09:24:25;;;;;;;11.00;5.82;;;9.50;99.90;;;;;;5094741;28;20043;-46
2022/04/25 09:27:13;;;;;;;13.57;5.97;;;9.60;99.90;;;;;;5094089;28;20046;-50
2022/04/25 09:29:40;;;;;;;9.60;4.32;;;11.40;99.90;;;;;;5092718;28;20082;-47
2022/04/25 09:32:09;;;;;;;11.07;4.93;;;9.50;99.90;;;;;;5094486;28;20039;-47
2022/04/25 09:37:42;;;;;;;8.48;4.30;;;9.40;99.90;;;;;;5095098;28;20043;-48
2022/04/25 09:40:09;;;;;;;10.73;4.45;;;9.50;99.90;;;;;;5094734;28;20040;-46
2022/04/25 09:42:36;;;;;;;8.55;3.92;;;9.60;99.90;;;;;;5092753;28;20042;-47
2022/04/25 09:45:03;;;;;;;9.45;4.90;;;11.40;99.90;;;;;;5094758;28;20050;-49
2022/04/25 09:47:34;;;;;;;10.10;4.88;;;9.50;99.90;;;;;;5093169;28;20579;-47
2022/04/25 09:50:11;;;;;;;17.05;4.47;;;11.70;99.90;;;;;;5094386;28;20957;-51
2022/04/25 09:53:02;;;;;;;9.50;4.32;;;11.90;99.90;;;;;;5094459;28;20511;-47
2022/04/25 09:55:35;;;;;;;12.13;4.60;;;9.80;99.90;;;;;;5094170;28;20385;-46
2022/04/25 09:58:18;;;;;;;8.93;4.40;;;9.90;99.90;;;;;;5092979;28;20104;-47
2022/04/25 10:00:47;;;;;;;10.88;4.07;;;9.90;99.90;;;;;;5092671;28;20036;-51
2022/04/25 10:03:15;;;;;;;8.10;4.28;;;11.10;99.90;;;;;;5093846;28;20044;-49
2022/04/25 10:05:52;;;;;;;7.10;4.13;;;12.10;99.90;;;;;;5093813;28;20657;-47
2022/04/25 10:08:19;;;;;;;9.93;3.70;;;10.60;99.90;;;;;;5092592;28;20043;-48
2022/04/25 10:10:50;;;;;;;7.32;3.40;;;10.40;99.90;;;;;;5092857;28;20499;-47
2022/04/25 10:13:16;;;;;;;11.40;4.05;;;12.50;99.90;;;;;;5091889;28;20040;-47
2022/04/25 10:15:43;;;;;;;8.75;3.67;;;11.80;99.90;;;;;;5093747;28;20492;-52
2022/04/25 10:18:09;;;;;;;9.43;3.20;;;11.60;99.90;;;;;;5092537;28;20708;-46
2022/04/25 10:20:38;;;;;;;6.80;4.05;;;11.40;99.90;;;;;;5093212;28;20040;-51
2022/04/25 10:23:10;;;;;;;7.13;3.50;;;12.50;99.90;;;;;;5093477;28;20122;-51
2022/04/25 10:25:37;;;;;;;7.05;3.28;;;10.70;99.90;;;;;;5092078;28;20047;-48
2022/04/25 10:28:11;;;;;;;8.48;3.50;;;11.20;99.90;;;;;;5090815;28;20043;-48
2022/04/25 10:30:39;;;;;;;7.35;3.28;;;10.80;99.90;;;;;;5091541;28;20496;-49
2022/04/25 10:33:21;;;;;;;7.68;3.92;;;10.70;99.90;;;;;;5092808;28;20039;-48
2022/04/25 10:35:50;;;;;;;7.77;3.80;;;10.70;99.90;;;;;;5093526;28;20047;-48
2022/04/25 10:38:50;;;;;;;7.05;3.35;;;10.70;99.90;;;;;;5091675;28;20247;-49
2022/04/25 10:44:31;;;;;;;9.05;4.10;;;10.80;99.90;;;;;;5091451;28;20739;-46
2022/04/25 10:47:03;;;;;;;9.80;3.97;;;11.30;99.90;;;;;;5090974;28;20608;-46
2022/04/25 10:49:35;;;;;;;8.15;3.67;;;11.80;99.90;;;;;;5093123;28;20043;-46
2022/04/25 10:52:02;;;;;;;6.47;3.25;;;11.10;99.90;;;;;;5092605;28;20050;-47
2022/04/25 10:54:49;;;;;;;10.68;3.63;;;11.20;99.90;;;;;;5093116;28;20530;-46
2022/04/25 10:57:16;;;;;;;7.07;3.80;;;11.40;99.90;;;;;;5093870;28;20047;-46
2022/04/25 10:59:42;;;;;;;5.82;3.13;;;11.40;99.90;;;;;;5091109;28;20047;-48
2022/04/25 11:02:25;;;;;;;7.25;3.78;;;11.50;99.90;;;;;;5091125;28;20036;-48
2022/04/25 11:05:09;;;;;;;6.38;3.65;;;11.60;99.90;;;;;;5094599;28;20104;-47
2022/04/25 11:07:41;;;;;;;7.18;3.50;;;12.60;99.90;;;;;;5093050;28;20079;-49
2022/04/25 11:10:09;;;;;;;10.90;3.63;;;11.70;99.90;;;;;;5093306;28;20052;-49
2022/04/25 11:13:04;;;;;;;8.13;3.42;;;11.80;99.90;;;;;;5092043;28;20031;-47
2022/04/25 11:15:42;;;;;;;6.47;3.50;;;11.40;99.90;;;;;;5045885;28;21020;-48
2022/04/25 11:18:34;;;;;;;7.50;3.83;;;11.60;99.90;;;;;;5044316;28;20813;-45
2022/04/25 11:21:05;;;;;;;7.97;3.90;;;11.80;99.90;;;;;;5044401;28;20135;-48
2022/04/25 11:23:33;;;;;;;12.63;4.32;;;12.80;99.90;;;;;;5046849;28;20159;-47
2022/04/25 11:25:59;;;;;;;9.38;3.95;;;11.70;99.90;;;;;;5044540;28;20408;-48
2022/04/25 11:28:26;;;;;;;8.10;4.28;;;12.90;99.90;;;;;;5043297;28;20036;-47
2022/04/25 11:31:14;;;;;;;9.82;4.00;;;11.70;99.90;;;;;;5047887;28;20052;-46
2022/04/25 11:33:44;;;;;;;8.07;3.42;;;11.90;99.90;;;;;;5048048;28;20045;-47
2022/04/25 11:36:11;;;;;;;10.73;3.70;;;11.80;99.90;;;;;;5046969;28;20122;-47
2022/04/25 11:41:27;;;;;;;11.38;3.95;;;12.00;99.90;;;;;;5044732;28;20055;-47
2022/04/25 11:43:52;;;;;;;11.00;3.85;;;12.40;99.90;;;;;;5033159;28;20131;-45
2022/04/25 11:46:19;;;;;;;8.13;3.72;;;13.30;99.90;;;;;;5045987;28;20040;-43
2022/04/25 11:48:52;;;;;;;9.40;3.58;;;12.00;99.90;;;;;;5045822;28;20087;-46
2022/04/25 11:51:24;;;;;;;8.40;3.55;;;12.20;99.90;;;;;;5054984;28;20051;-45
2022/04/25 11:53:54;;;;;;;7.47;3.40;;;12.60;99.90;;;;;;5091609;28;20096;-46
2022/04/25 11:56:24;;;;;;;11.05;3.50;;;12.50;99.90;;;;;;5092931;28;20602;-47
2022/04/25 11:58:50;;;;;;;12.02;4.07;;;13.90;99.90;;;;;;5092481;28;20251;-50
2022/04/25 12:01:35;;;;;;;6.65;3.40;;;12.20;99.90;;;;;;5091557;28;20122;-46
2022/04/25 12:04:16;;;;;;;9.25;3.88;;;10.00;99.90;;;;;;5098119;28;20820;-47
2022/04/25 12:07:02;;;;;;;10.18;3.85;;;12.10;99.90;;;;;;5096176;28;20062;-48
2022/04/25 12:15:34;;;;;;;10.30;4.10;;;12.20;99.90;;;;;;5097741;28;20062;-47
2022/04/25 12:18:29;;;;;;;8.27;3.97;;;12.10;99.90;;;;;;5095901;28;20043;-49
2022/04/25 12:21:03;;;;;;;7.65;4.13;;;12.40;99.90;;;;;;5097243;28;20430;-50
2022/04/25 12:23:39;;;;;;;7.53;3.72;;;12.10;99.90;;;;;;5096645;28;20066;-49
2022/04/25 12:26:08;;;;;;;10.02;3.75;;;12.00;99.90;;;;;;5095655;28;20116;-51
2022/04/25 12:28:37;;;;;;;10.15;4.07;;;12.00;99.90;;;;;;5096307;28;20514;-49
2022/04/25 12:31:07;;;;;;;7.55;3.47;;;12.10;99.90;;;;;;5096376;28;20116;-47
2022/04/25 12:33:38;;;;;;;12.93;4.13;;;12.00;99.90;;;;;;5096343;28;20082;-51
2022/04/25 12:36:25;;;;;;;8.70;4.07;;;12.00;99.90;;;;;;5097056;28;20039;-49
2022/04/25 12:39:02;;;;;;;7.03;2.70;;;11.90;99.90;;;;;;5093826;28;20051;-49
2022/04/25 12:41:32;;;;;;;8.20;3.72;;;12.40;99.90;;;;;;5096134;28;20137;-48
2022/04/25 12:44:10;;;;;;;9.30;4.25;;;13.30;99.90;;;;;;5096110;28;20036;-50
2022/04/25 12:46:47;;;;;;;9.57;2.65;;;12.40;99.90;;;;;;5095544;28;20411;-49
2022/04/25 12:49:18;;;;;;;9.10;4.25;;;12.10;99.90;;;;;;5094347;28;20407;-49
2022/04/25 12:51:45;;;;;;;11.15;4.00;;;13.70;99.90;;;;;;5093425;28;20412;-46
2022/04/25 12:54:32;;;;;;;8.13;4.70;;;11.80;99.90;;;;;;5095604;28;20611;-49
2022/04/25 12:57:15;;;;;;;12.63;4.30;;;11.90;99.90;;;;;;5094025;28;20232;-47
2022/04/25 12:59:43;;;;;;;11.70;4.35;;;12.10;99.90;;;;;;5095360;28;20108;-48
2022/04/25 13:02:17;;;;;;;8.73;3.50;;;13.20;99.90;;;;;;5094440;28;20062;-48
2022/04/25 13:05:12;;;;;;;8.85;3.67;;;12.00;99.90;;;;;;5094817;28;20031;-48
2022/04/25 13:07:40;;;;;;;7.85;4.30;;;14.30;99.90;;;;;;5093841;28;20046;-48
2022/04/25 13:10:15;;;;;;;9.52;4.25;;;12.60;99.90;;;;;;5094527;28;20047;-47
2022/04/25 13:12:46;;;;;;;9.13;4.20;;;12.20;99.90;;;;;;5094143;28;20040;-45
2022/04/25 13:15:17;;;;;;;10.80;3.88;;;13.10;99.90;;;;;;5095490;28;20249;-46
2022/04/25 13:17:43;;;;;;;11.05;4.50;;;13.30;99.90;;;;;;5128420;27;20047;-49
2022/04/25 13:20:12;;;;;;;12.48;4.38;;;12.30;99.90;;;;;;5093110;28;20040;-48
2022/04/25 13:22:42;;;;;;;8.02;4.35;;;12.20;99.90;;;;;;5095007;28;20043;-49
2022/04/25 13:25:09;;;;;;;15.15;5.60;;;12.50;99.90;;;;;;5095081;28;20039;-50
2022/04/25 13:27:36;;;;;;;9.35;4.28;;;12.40;99.90;;;;;;5094533;28;20978;-49
2022/04/25 13:30:09;;;;;;;11.80;5.43;;;12.30;99.90;;;;;;5095462;28;20472;-49
2022/04/25 13:32:36;;;;;;;9.85;4.78;;;12.50;99.90;;;;;;5094461;28;20126;-48
2022/04/25 13:35:03;;;;;;;7.35;4.32;;;12.50;99.90;;;;;;5094497;28;20112;-46
2022/04/25 13:37:32;;;;;;;12.65;5.38;;;12.60;99.90;;;;;;5094797;28;20055;-50
2022/04/25 13:40:01;;;;;;;12.05;4.75;;;12.70;99.90;;;;;;5094129;28;20032;-50
2022/04/25 13:42:28;;;;;;;9.63;5.55;;;12.80;99.90;;;;;;5093598;28;21283;-50
2022/04/25 13:44:54;;;;;;;11.85;5.60;;;12.50;99.90;;;;;;5125923;27;20424;-50
2022/04/25 13:47:20;;;;;;;10.13;5.82;;;11.70;99.90;;;;;;5094160;28;20496;-49
2022/04/25 13:49:48;;;;;;;11.73;5.90;;;12.50;99.90;;;;;;5093705;28;20043;-49
2022/04/25 13:52:13;;;;;;;13.02;4.78;;;12.30;99.90;;;;;;5093337;28;20048;-50
2022/04/25 13:54:40;;;;;;;9.18;4.70;;;12.50;99.90;;;;;;5094108;28;20396;-50
2022/04/25 13:57:06;;;;;;;10.32;5.32;;;12.30;99.90;;;;;;5092566;28;20766;-45